Time;durP1;ratioP1;P1;durP2;ratioP2;P2;SDS_P1;SDS_P2;PMS_P1;PMS_P2;Temp;Humidity;BMP_temperature;BMP_pressure;BME280_temperature;BME280_humidity;BME280_pressure;Samples;Min_cycle;Max_cycle;Signal;HPM_P1;HPM_P2
2022/09/13 00:00:08;;;;;;;3.75;2.35;;;;;;;11.28;96.52;100299.19;5556601;32;34718;-65
2022/09/13 00:03:11;;;;;;;7.65;2.97;;;;;;;11.25;97.65;100288.94;5570078;32;34689;-65
2022/09/13 00:06:17;;;;;;;5.32;2.40;;;;;;;11.23;97.83;100288.28;5569949;31;34362;-66
2022/09/13 00:09:20;;;;;;;5.03;2.60;;;;;;;11.24;97.37;100295.25;5569963;32;34002;-66
2022/09/13 00:12:23;;;;;;;7.55;2.45;;;;;;;11.17;98.22;100298.78;5569966;32;33955;-65
2022/09/13 00:15:27;;;;;;;3.97;2.65;;;;;;;11.12;98.72;100295.81;5569943;32;33979;-65
2022/09/13 00:18:29;;;;;;;10.70;2.58;;;;;;;11.08;99.92;100297.16;5569994;32;33948;-65
2022/09/13 00:21:32;;;;;;;6.10;2.70;;;;;;;11.03;100.00;100291.56;5569759;32;35370;-65
2022/09/13 00:24:36;;;;;;;5.80;2.87;;;;;;;11.02;100.00;100305.81;5555924;32;32534;-65
2022/09/13 00:27:39;;;;;;;8.43;2.62;;;;;;;11.02;100.00;100301.34;5556247;32;35251;-65
2022/09/13 00:30:41;;;;;;;4.50;2.35;;;;;;;11.05;100.00;100297.50;5570260;32;33935;-65
2022/09/13 00:33:44;;;;;;;4.65;2.78;;;;;;;10.98;100.00;100289.41;5556106;32;33899;-65
2022/09/13 00:36:47;;;;;;;4.60;2.90;;;;;;;10.96;100.00;100295.88;5569746;32;34073;-65
2022/09/13 00:39:49;;;;;;;3.78;2.42;;;;;;;10.93;100.00;100293.59;5556021;32;33717;-65
2022/09/13 00:42:52;;;;;;;5.03;2.90;;;;;;;10.92;100.00;100286.59;5569685;32;34639;-65
2022/09/13 00:45:55;;;;;;;4.37;2.75;;;;;;;10.90;100.00;100290.25;5555977;32;32443;-65
2022/09/13 00:49:23;;;;;;;3.67;2.53;;;;;;;10.92;100.00;100289.25;5569486;32;33948;-65
2022/09/13 00:52:28;;;;;;;5.60;2.65;;;;;;;10.86;100.00;100285.47;5569097;32;34116;-65
2022/09/13 00:55:33;;;;;;;5.07;2.80;;;;;;;10.84;100.00;100292.78;5569390;32;33846;-65
2022/09/13 00:58:42;;;;;;;3.87;2.42;;;;;;;10.84;100.00;100290.12;5569437;32;33982;-65
2022/09/13 01:01:53;;;;;;;4.72;2.65;;;;;;;10.78;100.00;100288.16;5555747;32;34235;-65
2022/09/13 01:04:56;;;;;;;4.97;2.42;;;;;;;10.85;100.00;100295.25;5569474;32;33486;-65
2022/09/13 01:07:59;;;;;;;5.32;2.47;;;;;;;11.02;100.00;100298.69;5555752;31;33912;-66
2022/09/13 01:11:05;;;;;;;3.12;2.25;;;;;;;11.14;99.62;100293.78;5555170;32;32888;-65
2022/09/13 01:14:08;;;;;;;5.07;2.40;;;;;;;11.05;99.18;100292.19;5569241;32;34399;-65
2022/09/13 01:17:12;;;;;;;6.25;2.47;;;;;;;11.12;97.76;100291.34;5569028;32;34589;-65
2022/09/13 01:20:14;;;;;;;4.07;2.50;;;;;;;11.13;97.41;100295.66;5569193;32;34635;-65
2022/09/13 01:23:51;;;;;;;5.12;2.10;;;;;;;11.16;95.69;100297.13;5568932;32;34175;-65
2022/09/13 01:27:00;;;;;;;2.83;2.30;;;;;;;11.32;93.50;100297.03;5568939;32;34676;-65
2022/09/13 01:30:10;;;;;;;3.33;2.20;;;;;;;11.07;95.14;100290.19;5568890;32;34015;-65
2022/09/13 01:34:02;;;;;;;5.05;2.30;;;;;;;10.94;96.32;100284.63;5568870;32;34290;-65
2022/09/13 01:37:07;;;;;;;3.47;2.20;;;;;;;10.74;96.97;100282.38;5535309;32;33927;-65
2022/09/13 01:40:09;;;;;;;5.60;2.37;;;;;;;10.64;98.32;100291.53;5568702;32;34375;-65
2022/09/13 01:43:41;;;;;;;3.42;2.40;;;;;;;10.51;98.87;100299.16;5568776;32;33999;-65
2022/09/13 01:46:44;;;;;;;6.15;2.53;;;;;;;10.52;100.00;100290.22;5554911;32;33902;-65
2022/09/13 01:49:59;;;;;;;3.83;2.40;;;;;;;10.45;99.86;100287.44;5568510;32;34693;-65
2022/09/13 01:53:09;;;;;;;4.97;2.72;;;;;;;10.33;100.00;100294.91;5554771;32;34050;-65
2022/09/13 01:56:57;;;;;;;6.62;2.37;;;;;;;10.24;100.00;100285.31;5568269;32;33598;-65
2022/09/13 02:00:14;;;;;;;4.72;2.45;;;;;;;10.16;100.00;100287.13;5470372;32;33778;-66
2022/09/13 02:03:22;;;;;;;6.30;2.78;;;;;;;10.07;100.00;100280.97;5470541;32;33898;-65
2022/09/13 02:06:29;;;;;;;4.32;2.70;;;;;;;10.12;100.00;100285.78;5471994;32;34581;-65
2022/09/13 02:09:39;;;;;;;4.40;2.47;;;;;;;10.08;100.00;100289.75;5473110;32;33986;-66
2022/09/13 02:12:45;;;;;;;3.42;2.30;;;;;;;10.07;100.00;100273.00;5460458;32;34598;-66
2022/09/13 02:15:53;;;;;;;4.47;2.37;;;;;;;10.08;100.00;100272.03;5472976;32;34036;-66
2022/09/13 02:19:08;;;;;;;4.93;2.50;;;;;;;10.04;100.00;100276.84;5472940;32;33381;-65
2022/09/13 02:22:14;;;;;;;4.50;2.40;;;;;;;10.10;100.00;100275.34;5473041;32;33813;-65
2022/09/13 02:25:20;;;;;;;3.53;2.30;;;;;;;10.18;100.00;100272.72;5472890;32;33916;-65
2022/09/13 02:28:31;;;;;;;3.55;2.55;;;;;;;10.17;100.00;100278.16;5472754;32;34747;-65
2022/09/13 02:31:42;;;;;;;8.13;2.53;;;;;;;10.09;100.00;100276.34;5460482;32;32329;-65
2022/09/13 02:34:51;;;;;;;4.35;2.30;;;;;;;10.02;100.00;100267.41;5533207;32;34219;-65
2022/09/13 02:38:01;;;;;;;3.80;2.55;;;;;;;9.95;100.00;100272.53;5551360;32;33914;-65
2022/09/13 02:41:20;;;;;;;3.95;2.40;;;;;;;9.84;100.00;100269.38;5551434;32;33928;-65
2022/09/13 02:44:35;;;;;;;4.47;2.50;;;;;;;9.80;100.00;100258.28;5538083;32;34017;-65
2022/09/13 02:47:44;;;;;;;3.53;2.62;;;;;;;9.88;100.00;100273.34;5551278;32;34592;-65
2022/09/13 02:51:06;;;;;;;4.60;2.60;;;;;;;9.79;100.00;100277.00;5551698;32;34434;-65
2022/09/13 02:54:22;;;;;;;5.53;2.80;;;;;;;9.87;100.00;100271.72;5551273;32;34449;-65
2022/09/13 02:57:38;;;;;;;3.65;2.72;;;;;;;9.83;100.00;100270.38;5551136;32;34711;-65
2022/09/13 03:00:41;;;;;;;3.08;2.55;;;;;;;9.70;100.00;100265.56;5537671;32;33949;-65
2022/09/13 03:03:44;;;;;;;3.50;2.58;;;;;;;9.60;100.00;100262.25;5551388;32;34645;-65
2022/09/13 03:06:48;;;;;;;5.35;2.87;;;;;;;9.53;100.00;100259.47;5551450;32;34551;-65
2022/09/13 03:09:56;;;;;;;3.47;2.53;;;;;;;9.51;100.00;100261.44;5563203;32;34565;-65
2022/09/13 03:13:33;;;;;;;7.37;2.72;;;;;;;9.49;100.00;100258.09;5570576;32;33536;-65
2022/09/13 03:16:58;;;;;;;5.87;2.78;;;;;;;9.47;100.00;100246.87;5556657;32;33952;-65
2022/09/13 03:20:13;;;;;;;5.70;2.90;;;;;;;9.41;100.00;100254.63;5570487;32;33906;-65
2022/09/13 03:23:40;;;;;;;4.68;2.70;;;;;;;9.36;100.00;100260.41;5570566;32;34616;-65
2022/09/13 03:27:08;;;;;;;6.97;2.83;;;;;;;9.34;100.00;100251.00;5570372;32;34827;-65
2022/09/13 03:30:13;;;;;;;7.95;3.15;;;;;;;9.34;100.00;100251.00;5570844;32;33992;-65
2022/09/13 03:33:28;;;;;;;5.30;2.75;;;;;;;9.27;100.00;100252.62;5543477;32;32607;-65
2022/09/13 03:36:46;;;;;;;5.85;2.85;;;;;;;9.25;100.00;100249.28;5543705;32;33913;-65
2022/09/13 03:39:59;;;;;;;4.03;2.58;;;;;;;9.25;100.00;100244.00;5570325;32;34025;-65
2022/09/13 03:43:11;;;;;;;8.00;2.90;;;;;;;9.18;100.00;100241.19;5570575;32;34677;-65
2022/09/13 03:46:23;;;;;;;6.00;3.30;;;;;;;9.15;100.00;100231.72;5570260;32;33925;-65
2022/09/13 03:49:27;;;;;;;5.47;3.42;;;;;;;9.19;100.00;100236.72;5570134;32;34718;-65
2022/09/13 03:52:30;;;;;;;6.65;2.90;;;;;;;9.14;100.00;100230.09;5556442;32;33238;-65
2022/09/13 03:55:39;;;;;;;4.28;3.08;;;;;;;9.14;100.00;100238.03;5570053;32;33929;-65
2022/09/13 03:58:42;;;;;;;4.57;3.20;;;;;;;9.19;100.00;100228.78;5570081;32;34074;-65
2022/09/13 04:01:45;;;;;;;7.07;3.30;;;;;;;9.11;100.00;100238.34;5556360;32;33873;-65
2022/09/13 04:04:48;;;;;;;5.43;3.72;;;;;;;9.08;100.00;100232.56;5570067;32;34073;-65
2022/09/13 04:07:51;;;;;;;7.28;3.65;;;;;;;9.06;100.00;100227.41;5564087;32;201887;-65
2022/09/13 04:10:53;;;;;;;6.12;3.83;;;;;;;9.07;100.00;100234.38;5556256;32;34203;-65
2022/09/13 04:13:57;;;;;;;7.45;4.28;;;;;;;9.08;100.00;100240.50;5570042;32;33903;-65
2022/09/13 04:17:00;;;;;;;7.65;4.20;;;;;;;9.05;100.00;100228.41;5569872;32;34026;-65
2022/09/13 04:20:04;;;;;;;6.12;4.03;;;;;;;9.02;100.00;100227.91;5569988;32;34627;-65
2022/09/13 04:23:07;;;;;;;5.43;3.87;;;;;;;9.03;100.00;100224.28;5569949;32;34675;-65
2022/09/13 04:26:09;;;;;;;6.35;3.80;;;;;;;8.98;100.00;100221.28;5556167;32;33864;-65
2022/09/13 04:29:12;;;;;;;4.78;3.47;;;;;;;9.00;100.00;100227.25;5569252;32;34533;-65
2022/09/13 04:32:15;;;;;;;6.45;3.50;;;;;;;9.00;100.00;100230.72;5570076;32;34632;-65
2022/09/13 04:35:18;;;;;;;5.53;3.70;;;;;;;8.98;100.00;100224.75;5556233;32;34840;-65
2022/09/13 04:38:21;;;;;;;6.95;3.72;;;;;;;9.02;100.00;100236.66;5569611;32;33901;-65
2022/09/13 04:41:23;;;;;;;7.53;3.30;;;;;;;9.07;100.00;100230.91;5542951;32;33116;-66
2022/09/13 04:44:26;;;;;;;7.62;3.35;;;;;;;9.12;100.00;100231.25;5569531;32;33969;-65
2022/09/13 04:47:29;;;;;;;5.62;3.40;;;;;;;9.17;100.00;100231.59;5569414;32;34568;-66
2022/09/13 04:50:32;;;;;;;6.07;3.25;;;;;;;9.22;100.00;100231.09;5569334;32;34145;-65
2022/09/13 04:53:35;;;;;;;5.50;3.20;;;;;;;9.28;100.00;100231.28;5569317;32;34576;-65
2022/09/13 04:56:38;;;;;;;4.90;3.37;;;;;;;9.44;100.00;100231.28;5569564;32;33936;-65
2022/09/13 04:59:40;;;;;;;4.45;3.40;;;;;;;9.59;100.00;100234.09;5569316;32;33916;-66
2022/09/13 05:02:43;;;;;;;3.87;3.12;;;;;;;9.71;100.00;100245.22;5569225;32;34091;-65
2022/09/13 05:05:46;;;;;;;9.55;3.30;;;;;;;9.79;100.00;100251.34;5569099;32;34226;-66
2022/09/13 05:08:54;;;;;;;6.30;3.40;;;;;;;9.91;100.00;100246.53;5555686;31;34582;-65
2022/09/13 05:11:57;;;;;;;5.18;3.33;;;;;;;10.01;100.00;100252.50;5542367;32;33270;-65
2022/09/13 05:14:59;;;;;;;6.05;3.03;;;;;;;10.04;100.00;100253.00;5569439;32;33865;-65
2022/09/13 05:18:02;;;;;;;6.20;3.28;;;;;;;10.37;100.00;100255.59;5568798;32;34619;-65
2022/09/13 05:21:05;;;;;;;4.95;3.55;;;;;;;10.35;100.00;100257.63;5568652;32;34051;-66
2022/09/13 05:24:08;;;;;;;9.02;3.10;;;;;;;10.46;100.00;100250.09;5568747;32;34083;-65
2022/09/13 05:27:11;;;;;;;554.62;137.50;;;;;;;10.64;100.00;100255.22;5568518;32;34656;-65
2022/09/13 05:30:14;;;;;;;11.15;4.22;;;;;;;10.69;100.00;100258.19;5568345;32;33994;-65
2022/09/13 05:33:16;;;;;;;18.15;4.25;;;;;;;10.87;99.61;100266.72;5568703;32;33953;-65
2022/09/13 05:36:19;;;;;;;7.90;3.50;;;;;;;10.90;99.49;100257.56;5568300;32;34753;-65
2022/09/13 05:39:21;;;;;;;6.78;3.08;;;;;;;10.96;99.25;100264.03;5568129;32;34645;-64
2022/09/13 05:42:44;;;;;;;6.25;3.30;;;;;;;11.08;99.10;100260.00;5559222;32;34151;-65
2022/09/13 05:45:47;;;;;;;7.65;3.70;;;;;;;11.18;100.00;100256.09;5570437;32;33990;-66
2022/09/13 05:48:50;;;;;;;6.07;3.40;;;;;;;11.17;100.00;100248.34;5543365;32;32529;-65
2022/09/13 05:51:52;;;;;;;8.05;3.72;;;;;;;11.22;100.00;100252.12;5570210;32;34648;-66
2022/09/13 05:54:58;;;;;;;5.70;3.67;;;;;;;11.33;100.00;100254.34;5570501;32;34321;-66
2022/09/13 05:58:01;;;;;;;6.10;3.65;;;;;;;11.31;100.00;100253.72;5570717;32;34683;-65
2022/09/13 06:01:05;;;;;;;6.95;4.07;;;;;;;11.50;99.39;100265.72;5570823;32;33992;-66
2022/09/13 06:04:08;;;;;;;8.20;3.72;;;;;;;11.59;99.89;100261.16;5557038;32;34190;-65
2022/09/13 06:07:11;;;;;;;9.75;4.20;;;;;;;11.82;98.21;100266.50;5570620;32;34122;-65
2022/09/13 06:10:14;;;;;;;7.97;3.97;;;;;;;11.95;96.44;100267.56;5569878;32;34311;-64
2022/09/13 06:13:16;;;;;;;8.43;4.70;;;;;;;12.07;95.60;100267.94;5570471;32;35191;-65
2022/09/13 06:16:19;;;;;;;6.45;3.75;;;;;;;12.14;93.85;100274.22;5556490;32;34592;-65
2022/09/13 06:19:23;;;;;;;10.90;4.50;;;;;;;12.26;94.45;100267.44;5556583;32;32884;-66
2022/09/13 06:22:31;;;;;;;6.22;3.85;;;;;;;12.44;94.74;100265.25;5555994;32;33238;-66
2022/09/13 06:25:34;;;;;;;12.20;3.72;;;;;;;12.78;92.71;100259.38;5570287;32;33951;-66
2022/09/13 06:28:37;;;;;;;9.00;3.90;;;;;;;13.18;88.28;100271.37;5570278;32;33935;-66
2022/09/13 06:31:43;;;;;;;7.12;3.65;;;;;;;13.66;86.80;100279.69;5570445;32;34805;-67
2022/09/13 06:34:47;;;;;;;9.27;3.53;;;;;;;14.09;84.08;100275.97;5570357;32;34567;-66
2022/09/13 06:37:50;;;;;;;13.43;3.75;;;;;;;14.88;80.98;100262.34;5570085;32;33715;-66
2022/09/13 06:41:06;;;;;;;4.97;3.60;;;;;;;15.14;76.24;100271.31;5556328;32;34939;-67
2022/09/13 06:44:09;;;;;;;6.20;3.12;;;;;;;16.62;72.58;100280.94;5543672;32;34011;-66
2022/09/13 06:47:12;;;;;;;9.60;3.17;;;;;;;17.72;64.16;100272.66;5570403;32;34201;-66
2022/09/13 06:50:14;;;;;;;6.62;2.60;;;;;;;18.27;61.09;100279.06;5556221;32;33441;-66
2022/09/13 06:53:17;;;;;;;5.37;2.70;;;;;;;19.14;60.54;100275.25;5556477;32;33478;-67
2022/09/13 06:56:22;;;;;;;4.47;2.70;;;;;;;19.75;57.69;100271.56;5570573;32;34666;-67
2022/09/13 06:59:25;;;;;;;6.82;3.30;;;;;;;20.47;53.49;100278.47;5556366;32;32722;-67
2022/09/13 07:02:28;;;;;;;7.62;3.17;;;;;;;20.90;52.24;100271.88;5556722;32;33965;-67
2022/09/13 07:05:31;;;;;;;11.98;3.40;;;;;;;21.50;50.68;100273.09;5570088;32;33924;-68
2022/09/13 07:08:33;;;;;;;13.90;3.90;;;;;;;21.40;49.44;100275.59;5569022;32;34302;-67
2022/09/13 07:11:38;;;;;;;4.95;3.30;;;;;;;20.29;52.97;100275.84;5556575;32;34668;-67
2022/09/13 07:14:41;;;;;;;8.50;4.15;;;;;;;21.83;50.60;100288.56;5570286;32;34552;-67
2022/09/13 07:17:44;;;;;;;10.35;3.55;;;;;;;21.33;50.00;100274.09;5556369;32;33403;-67
2022/09/13 07:20:46;;;;;;;13.43;3.62;;;;;;;22.00;50.17;100284.00;5570222;32;34043;-66
2022/09/13 07:23:51;;;;;;;10.85;3.58;;;;;;;22.69;45.50;100284.53;5569912;32;33880;-65
2022/09/13 07:26:54;;;;;;;7.30;3.55;;;;;;;21.95;45.87;100280.41;5555871;32;34480;-66
2022/09/13 07:29:57;;;;;;;10.55;3.80;;;;;;;22.33;45.14;100280.47;5570173;32;34566;-66
2022/09/13 07:33:00;;;;;;;12.73;3.60;;;;;;;22.69;44.39;100279.12;5556420;32;33951;-67
2022/09/13 07:36:05;;;;;;;5.30;2.10;;;;;;;23.39;43.79;100273.78;5556562;32;33290;-66
2022/09/13 07:39:08;;;;;;;5.07;1.80;;;;;;;23.63;40.80;100274.34;5556018;32;32743;-66
2022/09/13 07:42:17;;;;;;;;;;;;;;;23.87;38.67;100277.53;5555952;32;34203;-68
2022/09/13 07:45:20;;;;;;;6.68;1.98;;;;;;;23.68;38.48;100278.97;5569825;32;34252;-66
2022/09/13 07:48:24;;;;;;;2.95;1.73;;;;;;;24.14;37.51;100277.50;5569712;32;33911;-66
2022/09/13 07:51:32;;;;;;;3.67;1.77;;;;;;;23.73;38.18;100284.44;5556202;32;32754;-66
2022/09/13 07:54:36;;;;;;;5.05;1.90;;;;;;;24.08;37.88;100282.06;5569919;32;35239;-67
2022/09/13 07:57:39;;;;;;;9.13;2.00;;;;;;;24.44;37.05;100287.78;5556437;32;34522;-66
2022/09/13 08:00:42;;;;;;;4.78;1.87;;;;;;;24.78;35.99;100285.56;5569791;32;34354;-66
2022/09/13 08:03:51;;;;;;;4.53;2.00;;;;;;;25.65;34.66;100284.84;5555053;32;34015;-66
2022/09/13 08:06:54;;;;;;;7.25;1.98;;;;;;;25.66;33.32;100281.06;5556004;32;32764;-67
2022/09/13 08:09:57;;;;;;;3.78;1.75;;;;;;;25.26;34.69;100276.28;5556046;32;34184;-67
2022/09/13 08:13:00;;;;;;;12.98;1.95;;;;;;;23.74;36.82;100277.97;5569972;32;35278;-66
2022/09/13 08:16:05;;;;;;;9.52;2.03;;;;;;;24.99;35.64;100266.41;5555817;32;32451;-66
2022/09/13 08:19:12;;;;;;;4.95;1.87;;;;;;;25.60;34.57;100279.41;5555611;32;32448;-66
2022/09/13 08:22:14;;;;;;;5.80;1.95;;;;;;;25.91;32.72;100281.88;5569748;32;35229;-67
2022/09/13 08:25:17;;;;;;;10.25;2.22;;;;;;;25.01;33.96;100274.28;5569606;32;34067;-66
2022/09/13 08:28:22;;;;;;;4.65;2.25;;;;;;;25.00;36.33;100280.81;5569236;32;34242;-67
2022/09/13 08:31:29;;;;;;;;;;;;;;;25.81;32.98;100281.88;5556270;32;34221;-67
2022/09/13 08:34:32;;;;;;;9.48;1.92;;;;;;;26.36;33.18;100280.25;5569188;32;34356;-67
2022/09/13 08:37:34;;;;;;;7.53;2.00;;;;;;;27.10;31.57;100282.28;5569452;32;33838;-66
2022/09/13 08:40:41;;;;;;;3.37;1.98;;;;;;;26.00;33.19;100275.91;5569452;32;34089;-66
2022/09/13 08:43:49;;;;;;;5.45;2.28;;;;;;;26.59;32.29;100266.06;5569276;32;34037;-67
2022/09/13 08:47:37;;;;;;;9.25;2.10;;;;;;;26.68;32.87;100274.47;5542769;32;32419;-67
2022/09/13 08:50:41;;;;;;;8.43;2.22;;;;;;;27.64;30.20;100264.00;5555187;32;34129;-66
2022/09/13 08:53:47;;;;;;;3.12;1.85;;;;;;;28.16;29.12;100272.62;5569140;32;34056;-66
2022/09/13 08:57:06;;;;;;;12.95;2.35;;;;;;;26.04;34.48;100274.28;5542156;32;32884;-66
2022/09/13 09:00:19;;;;;;;5.97;2.50;;;;;;;24.20;36.76;100252.12;5569049;32;34849;-66
2022/09/13 09:03:55;;;;;;;9.60;2.20;;;;;;;22.73;39.12;100261.34;5555229;32;33272;-66
2022/09/13 09:07:25;;;;;;;6.93;1.98;;;;;;;21.64;41.66;100258.22;5554849;32;33842;-65
2022/09/13 09:10:39;;;;;;;10.65;1.95;;;;;;;20.80;45.16;100262.50;5568854;32;34411;-64
2022/09/13 09:13:53;;;;;;;5.62;1.90;;;;;;;20.05;45.63;100261.53;5555798;32;34262;-66
2022/09/13 09:17:21;;;;;;;3.33;2.10;;;;;;;19.83;47.98;100255.91;5561452;32;33598;-65
2022/09/13 09:20:31;;;;;;;5.05;1.92;;;;;;;19.58;47.26;100257.09;5575150;32;34018;-65
2022/09/13 09:23:40;;;;;;;;;;;;;;;19.14;47.28;100251.06;5561684;32;31473;-66
2022/09/13 09:26:43;;;;;;;6.05;1.95;;;;;;;19.08;48.99;100244.72;5575326;32;34263;-65
2022/09/13 09:29:49;;;;;;;6.00;2.20;;;;;;;19.34;49.28;100234.66;5575050;32;33905;-64
2022/09/13 09:33:10;;;;;;;4.25;2.00;;;;;;;19.47;47.85;100221.03;5574944;32;33935;-66
2022/09/13 09:36:31;;;;;;;7.87;2.50;;;;;;;19.28;48.06;100222.09;5561177;32;32517;-65
2022/09/13 09:39:37;;;;;;;8.95;2.30;;;;;;;19.31;48.89;100221.66;5574967;32;34691;-65
2022/09/13 09:42:46;;;;;;;8.25;1.98;;;;;;;19.53;48.99;100215.56;5575053;32;34068;-66
2022/09/13 09:45:52;;;;;;;5.93;1.95;;;;;;;19.46;48.62;100216.72;5574906;32;34228;-67
2022/09/13 09:50:07;;;;;;;5.47;2.40;;;;;;;19.69;49.13;100218.66;5574589;32;33975;-65
2022/09/13 09:52:56;;;;;;;5.03;2.00;;;;;;;19.53;47.86;100218.25;5575213;32;34240;-64
2022/09/13 09:56:20;;;;;;;4.37;1.90;;;;;;;19.94;47.86;100209.31;5561057;32;34489;-66
2022/09/13 09:59:30;;;;;;;3.92;1.98;;;;;;;20.06;47.38;100216.56;5560825;32;33061;-66
2022/09/13 10:02:35;;;;;;;5.47;2.03;;;;;;;20.06;47.13;100201.25;5547865;32;32442;-67
2022/09/13 10:05:38;;;;;;;5.75;1.60;;;;;;;19.89;47.55;100194.94;5560815;32;32738;-67
2022/09/13 10:08:47;;;;;;;1.90;1.52;;;;;;;20.45;46.97;100180.88;5560281;31;32511;-66
2022/09/13 10:11:57;;;;;;;3.27;1.87;;;;;;;20.57;45.73;100173.59;5574385;32;33986;-66
2022/09/13 10:15:21;;;;;;;4.07;1.65;;;;;;;20.70;45.58;100167.94;5574591;32;34250;-65
2022/09/13 10:18:26;;;;;;;4.03;1.62;;;;;;;21.11;45.98;100176.78;5547674;32;32809;-65
2022/09/13 10:22:02;;;;;;;4.87;1.83;;;;;;;21.26;45.23;100171.72;5560154;32;33213;-65
2022/09/13 10:25:21;;;;;;;2.60;1.52;;;;;;;21.37;45.56;100173.53;5573742;32;35168;-65
2022/09/13 10:28:25;;;;;;;6.80;1.63;;;;;;;21.57;42.92;100167.66;5570461;32;33879;-67
2022/09/13 10:31:33;;;;;;;7.87;1.85;;;;;;;21.00;44.14;100165.00;5570477;32;34537;-64
2022/09/13 10:34:36;;;;;;;8.50;2.00;;;;;;;21.38;45.32;100164.38;5570766;32;34103;-67
2022/09/13 10:37:43;;;;;;;3.92;1.60;;;;;;;21.61;43.28;100155.31;5557019;32;32987;-66
2022/09/13 10:40:47;;;;;;;4.53;1.70;;;;;;;21.55;42.60;100148.19;5544031;32;32446;-67
2022/09/13 10:43:59;;;;;;;3.95;1.73;;;;;;;21.56;42.50;100149.81;5556756;32;33327;-65
2022/09/13 10:47:12;;;;;;;3.83;1.60;;;;;;;21.62;42.79;100149.69;5570482;32;33963;-66
2022/09/13 10:50:21;;;;;;;6.55;1.98;;;;;;;22.47;42.17;100148.47;5556417;32;34443;-65
2022/09/13 10:53:34;;;;;;;5.70;1.80;;;;;;;24.02;37.93;100152.19;5570368;32;35221;-66
2022/09/13 10:56:37;;;;;;;5.10;2.22;;;;;;;25.88;34.63;100162.03;5556347;32;33329;-68
2022/09/13 10:59:40;;;;;;;6.40;1.85;;;;;;;26.62;33.06;100164.03;5543469;32;32270;-66
2022/09/13 11:03:05;;;;;;;8.88;2.30;;;;;;;27.20;31.65;100159.66;5557066;32;33891;-67
2022/09/13 11:06:32;;;;;;;4.43;2.20;;;;;;;28.13;30.64;100156.72;5556651;31;35244;-66
2022/09/13 11:09:45;;;;;;;4.20;2.00;;;;;;;29.30;29.28;100150.59;5570134;32;33855;-66
2022/09/13 11:12:57;;;;;;;7.18;1.95;;;;;;;29.06;28.34;100158.87;5556481;32;33494;-66
2022/09/13 11:16:05;;;;;;;5.37;2.25;;;;;;;29.07;29.54;100141.38;5570350;32;34730;-66
2022/09/13 11:19:29;;;;;;;4.95;2.00;;;;;;;28.95;28.81;100135.53;5570348;32;33928;-66
2022/09/13 11:22:56;;;;;;;6.60;2.00;;;;;;;28.79;29.08;100139.59;5569936;32;34936;-66
2022/09/13 11:26:16;;;;;;;6.72;2.45;;;;;;;28.56;29.52;100133.06;5570062;32;34593;-66
2022/09/13 11:29:51;;;;;;;9.05;2.65;;;;;;;30.61;27.31;100136.50;5556550;32;34011;-66
2022/09/13 11:33:18;;;;;;;3.05;1.67;;;;;;;31.97;25.03;100129.69;5570148;32;33897;-66
2022/09/13 11:36:44;;;;;;;3.30;1.85;;;;;;;31.12;25.64;100111.56;5556403;32;33970;-66
2022/09/13 11:40:09;;;;;;;3.00;1.70;;;;;;;31.60;25.15;100127.41;5569102;32;34733;-67
2022/09/13 11:43:43;;;;;;;3.00;1.80;;;;;;;32.05;24.63;100108.94;5556337;32;32859;-67
2022/09/13 11:46:55;;;;;;;4.03;1.75;;;;;;;33.58;23.21;100113.03;5556318;32;34622;-66
2022/09/13 11:50:16;;;;;;;3.67;1.30;;;;;;;33.15;23.58;100101.25;5569983;32;34137;-67
2022/09/13 11:53:34;;;;;;;6.10;1.67;;;;;;;33.42;21.50;100106.41;5555965;32;33604;-68
2022/09/13 11:56:43;;;;;;;3.33;1.30;;;;;;;34.08;21.64;100100.59;5569778;32;34166;-67
2022/09/13 11:59:52;;;;;;;5.87;1.27;;;;;;;33.31;22.11;100091.37;5569892;32;34239;-68
2022/09/13 12:03:16;;;;;;;3.05;1.30;;;;;;;33.62;22.61;100102.16;5569939;32;34045;-68
2022/09/13 12:06:30;;;;;;;2.22;1.40;;;;;;;33.38;21.73;100097.22;5556202;32;33896;-67
2022/09/13 12:09:50;;;;;;;1.95;1.12;;;;;;;31.65;23.42;100089.69;5569628;32;33918;-66
2022/09/13 12:12:55;;;;;;;3.25;1.20;;;;;;;29.08;25.60;100098.47;5555728;32;32473;-66
2022/09/13 12:16:04;;;;;;;3.05;1.27;;;;;;;28.79;26.35;100098.66;5569918;32;34726;-67
2022/09/13 12:19:13;;;;;;;;;;;;;;;29.57;25.22;100098.00;5556036;32;32894;-66
2022/09/13 12:22:17;;;;;;;4.12;1.30;;;;;;;29.59;25.14;100087.53;5569818;32;34212;-66
2022/09/13 12:25:30;;;;;;;3.53;1.10;;;;;;;29.43;25.69;100076.09;5555891;32;32402;-67
2022/09/13 12:28:41;;;;;;;3.80;1.10;;;;;;;27.34;28.35;100073.47;5555851;32;33541;-67
2022/09/13 12:31:44;;;;;;;1.58;1.00;;;;;;;28.26;27.12;100081.59;5570144;32;34759;-67
2022/09/13 12:34:53;;;;;;;2.30;1.10;;;;;;;29.56;25.35;100082.69;5556151;32;33022;-67
2022/09/13 12:38:33;;;;;;;2.30;1.20;;;;;;;30.39;24.81;100068.78;5569828;32;35189;-67
2022/09/13 12:41:41;;;;;;;3.10;1.30;;;;;;;28.66;26.92;100066.59;5558124;32;33908;-67
2022/09/13 12:44:54;;;;;;;3.75;1.52;;;;;;;29.79;26.11;100059.84;5542720;32;34934;-68
2022/09/13 12:48:12;;;;;;;1.80;1.20;;;;;;;29.07;26.27;100062.16;5555854;32;34590;-67
2022/09/13 12:51:33;;;;;;;2.33;1.30;;;;;;;29.41;25.99;100052.88;5554992;32;32325;-67
2022/09/13 12:54:42;;;;;;;2.65;1.40;;;;;;;27.60;29.63;100053.09;5569163;32;34610;-67
2022/09/13 12:58:03;;;;;;;1.30;1.20;;;;;;;26.43;31.46;100051.50;5555247;32;33021;-66
2022/09/13 13:01:27;;;;;;;1.58;1.25;;;;;;;26.12;32.17;100050.78;5555849;32;34119;-66
2022/09/13 13:04:35;;;;;;;2.10;1.10;;;;;;;24.96;34.10;100051.72;5555167;32;33666;-67
2022/09/13 13:07:39;;;;;;;3.97;1.40;;;;;;;24.27;35.38;100046.66;5569361;32;34403;-67
2022/09/13 13:10:42;;;;;;;2.05;1.40;;;;;;;25.84;33.17;100046.78;5555534;32;32475;-67
2022/09/13 13:13:54;;;;;;;1.85;1.20;;;;;;;29.36;27.64;100048.31;5569101;32;34004;-67
2022/09/13 13:17:34;;;;;;;4.43;1.40;;;;;;;30.23;26.15;100053.78;5555394;32;34626;-68
2022/09/13 13:20:52;;;;;;;2.67;1.15;;;;;;;31.99;23.98;100053.38;5555196;32;33227;-68
2022/09/13 13:24:14;;;;;;;2.75;1.23;;;;;;;33.56;22.45;100041.00;5554953;32;32712;-67
2022/09/13 13:27:36;;;;;;;3.10;1.20;;;;;;;36.86;19.13;100050.19;5554959;32;32657;-67
2022/09/13 13:30:52;;;;;;;2.15;1.20;;;;;;;38.67;17.30;100050.13;5554696;32;34075;-69
2022/09/13 13:34:13;;;;;;;1.80;1.00;;;;;;;36.91;18.53;100047.19;5568295;32;34195;-68
2022/09/13 13:37:19;;;;;;;3.47;1.10;;;;;;;35.88;19.86;100032.12;5568739;32;34430;-68
2022/09/13 13:40:24;;;;;;;2.65;1.10;;;;;;;35.67;19.99;100023.97;5554698;32;34256;-68
2022/09/13 13:43:31;;;;;;;2.10;1.00;;;;;;;35.40;20.15;100033.66;5554248;32;32671;-68
2022/09/13 13:46:35;;;;;;;4.55;1.10;;;;;;;34.62;21.27;100022.50;5540613;32;32467;-67
2022/09/13 13:49:37;;;;;;;1.80;1.10;;;;;;;34.57;21.47;100021.91;5567782;32;34109;-68
2022/09/13 13:53:17;;;;;;;1.80;1.10;;;;;;;36.80;19.27;100012.88;5567810;32;33971;-67
2022/09/13 13:56:20;;;;;;;1.50;1.20;;;;;;;34.98;20.91;100024.66;5554014;32;32458;-68
2022/09/13 13:59:31;;;;;;;3.67;1.02;;;;;;;37.43;19.92;100027.69;5567794;32;35293;-68
2022/09/13 14:03:09;;;;;;;1.30;1.20;;;;;;;36.15;19.81;100021.22;5555214;32;32836;-68
2022/09/13 14:06:47;;;;;;;2.62;1.20;;;;;;;35.77;20.39;100017.19;5474338;32;33932;-68
2022/09/13 14:10:13;;;;;;;1.42;1.10;;;;;;;34.55;22.03;100005.72;5570159;32;33920;-68
2022/09/13 14:13:40;;;;;;;1.65;1.30;;;;;;;33.11;23.41;100004.88;5570083;32;34778;-66
2022/09/13 14:17:18;;;;;;;4.20;1.30;;;;;;;28.69;28.64;100001.28;5570283;32;34680;-67
2022/09/13 14:20:24;;;;;;;1.58;1.00;;;;;;;25.28;34.78;100008.81;5556393;32;32615;-65
2022/09/13 14:23:27;;;;;;;3.62;1.40;;;;;;;26.14;33.40;99995.00;5570104;32;34047;-66
2022/09/13 14:26:30;;;;;;;3.28;1.48;;;;;;;24.77;35.66;99986.28;5555078;32;32920;-68
2022/09/13 14:29:32;;;;;;;2.92;1.23;;;;;;;23.48;39.02;99998.00;5555682;32;34024;-67
2022/09/13 14:32:46;;;;;;;4.00;1.48;;;;;;;23.36;39.22;99989.22;5557181;32;34088;-67
2022/09/13 14:35:57;;;;;;;2.12;1.10;;;;;;;23.38;39.24;99981.69;5569502;32;34056;-67
2022/09/13 14:39:00;;;;;;;2.17;1.25;;;;;;;23.16;39.76;99980.97;5570321;32;34227;-67
2022/09/13 14:42:14;;;;;;;2.03;1.33;;;;;;;22.89;40.15;99975.63;5543133;32;33818;-67